sensor_id;sensor_type;location;lat;lon;timestamp;P1;durP1;ratioP1;P2;durP2;ratioP2
43646;SDS011;56152;49.996;18.980;2023-07-28T00:04:35;3.05;;;1.98;;
43646;SDS011;56152;49.996;18.980;2023-07-28T00:09:38;2.83;;;2.13;;
43646;SDS011;56152;49.996;18.980;2023-07-28T00:14:41;3.72;;;2.67;;
43646;SDS011;56152;49.996;18.980;2023-07-28T00:19:43;4.10;;;2.38;;
43646;SDS011;56152;49.996;18.980;2023-07-28T00:24:45;3.38;;;2.22;;
43646;SDS011;56152;49.996;18.980;2023-07-28T00:29:49;3.50;;;2.75;;
43646;SDS011;56152;49.996;18.980;2023-07-28T00:34:51;5.93;;;2.53;;
43646;SDS011;56152;49.996;18.980;2023-07-28T00:39:58;5.15;;;2.55;;
43646;SDS011;56152;49.996;18.980;2023-07-28T00:45:03;4.10;;;2.80;;
43646;SDS011;56152;49.996;18.980;2023-07-28T00:50:10;4.40;;;2.60;;
43646;SDS011;56152;49.996;18.980;2023-07-28T00:55:13;3.50;;;2.58;;
43646;SDS011;56152;49.996;18.980;2023-07-28T01:00:17;3.92;;;2.40;;
43646;SDS011;56152;49.996;18.980;2023-07-28T01:05:19;3.05;;;2.30;;
43646;SDS011;56152;49.996;18.980;2023-07-28T01:10:24;5.18;;;2.78;;
43646;SDS011;56152;49.996;18.980;2023-07-28T01:15:34;3.47;;;2.57;;
43646;SDS011;56152;49.996;18.980;2023-07-28T01:20:35;3.72;;;2.65;;
43646;SDS011;56152;49.996;18.980;2023-07-28T01:25:45;3.00;;;2.55;;
43646;SDS011;56152;49.996;18.980;2023-07-28T01:30:54;3.47;;;2.65;;
43646;SDS011;56152;49.996;18.980;2023-07-28T01:36:06;3.80;;;2.50;;
43646;SDS011;56152;49.996;18.980;2023-07-28T01:41:08;6.07;;;2.65;;
43646;SDS011;56152;49.996;18.980;2023-07-28T01:46:13;4.03;;;2.63;;
43646;SDS011;56152;49.996;18.980;2023-07-28T01:51:14;4.93;;;2.60;;
43646;SDS011;56152;49.996;18.980;2023-07-28T01:56:17;4.53;;;3.20;;
43646;SDS011;56152;49.996;18.980;2023-07-28T02:01:21;4.90;;;2.60;;
43646;SDS011;56152;49.996;18.980;2023-07-28T02:06:23;3.45;;;2.38;;
43646;SDS011;56152;49.996;18.980;2023-07-28T02:11:27;5.53;;;2.42;;
43646;SDS011;56152;49.996;18.980;2023-07-28T02:16:34;5.15;;;2.67;;
43646;SDS011;56152;49.996;18.980;2023-07-28T02:21:36;4.32;;;2.63;;
43646;SDS011;56152;49.996;18.980;2023-07-28T02:26:38;4.45;;;2.83;;
43646;SDS011;56152;49.996;18.980;2023-07-28T02:31:42;3.63;;;2.40;;
43646;SDS011;56152;49.996;18.980;2023-07-28T02:36:44;3.95;;;2.65;;
43646;SDS011;56152;49.996;18.980;2023-07-28T02:41:46;8.10;;;2.58;;
43646;SDS011;56152;49.996;18.980;2023-07-28T02:46:50;4.93;;;2.50;;
43646;SDS011;56152;49.996;18.980;2023-07-28T02:51:52;4.95;;;2.05;;
43646;SDS011;56152;49.996;18.980;2023-07-28T02:56:54;3.60;;;2.60;;
43646;SDS011;56152;49.996;18.980;2023-07-28T03:01:58;3.75;;;2.83;;
43646;SDS011;56152;49.996;18.980;2023-07-28T03:07:00;4.78;;;2.80;;
43646;SDS011;56152;49.996;18.980;2023-07-28T03:12:06;4.45;;;2.40;;
43646;SDS011;56152;49.996;18.980;2023-07-28T03:17:11;4.28;;;2.63;;
43646;SDS011;56152;49.996;18.980;2023-07-28T03:22:13;3.15;;;2.60;;
43646;SDS011;56152;49.996;18.980;2023-07-28T03:27:14;4.32;;;2.55;;
43646;SDS011;56152;49.996;18.980;2023-07-28T03:32:18;5.72;;;2.55;;
43646;SDS011;56152;49.996;18.980;2023-07-28T03:37:20;4.55;;;3.10;;
43646;SDS011;56152;49.996;18.980;2023-07-28T03:42:24;4.32;;;2.47;;
43646;SDS011;56152;49.996;18.980;2023-07-28T03:47:28;4.20;;;2.55;;
43646;SDS011;56152;49.996;18.980;2023-07-28T03:52:30;5.45;;;2.67;;
43646;SDS011;56152;49.996;18.980;2023-07-28T03:57:32;5.97;;;2.40;;
43646;SDS011;56152;49.996;18.980;2023-07-28T04:02:36;4.88;;;2.50;;
43646;SDS011;56152;49.996;18.980;2023-07-28T04:07:38;8.20;;;2.25;;
43646;SDS011;56152;49.996;18.980;2023-07-28T04:12:42;4.38;;;3.00;;
43646;SDS011;56152;49.996;18.980;2023-07-28T04:17:45;4.30;;;3.00;;
43646;SDS011;56152;49.996;18.980;2023-07-28T04:22:49;2.90;;;2.40;;
43646;SDS011;56152;49.996;18.980;2023-07-28T04:27:51;6.35;;;3.03;;
43646;SDS011;56152;49.996;18.980;2023-07-28T04:33:00;4.57;;;2.50;;
43646;SDS011;56152;49.996;18.980;2023-07-28T04:38:02;4.97;;;2.47;;
43646;SDS011;56152;49.996;18.980;2023-07-28T04:43:07;4.63;;;2.60;;
43646;SDS011;56152;49.996;18.980;2023-07-28T04:48:10;7.60;;;3.22;;
43646;SDS011;56152;49.996;18.980;2023-07-28T04:53:16;4.82;;;2.95;;
43646;SDS011;56152;49.996;18.980;2023-07-28T04:58:18;4.60;;;2.85;;
43646;SDS011;56152;49.996;18.980;2023-07-28T05:03:25;4.15;;;2.53;;
43646;SDS011;56152;49.996;18.980;2023-07-28T05:08:33;4.10;;;2.60;;
43646;SDS011;56152;49.996;18.980;2023-07-28T05:13:36;3.30;;;2.35;;
43646;SDS011;56152;49.996;18.980;2023-07-28T05:18:40;5.43;;;2.70;;
43646;SDS011;56152;49.996;18.980;2023-07-28T05:23:44;4.45;;;3.13;;
43646;SDS011;56152;49.996;18.980;2023-07-28T05:29:01;6.22;;;2.50;;
43646;SDS011;56152;49.996;18.980;2023-07-28T05:34:24;5.63;;;2.80;;
43646;SDS011;56152;49.996;18.980;2023-07-28T05:39:38;5.72;;;2.80;;
43646;SDS011;56152;49.996;18.980;2023-07-28T05:44:58;7.75;;;3.00;;
43646;SDS011;56152;49.996;18.980;2023-07-28T05:50:12;5.20;;;2.90;;
43646;SDS011;56152;49.996;18.980;2023-07-28T05:55:25;5.03;;;3.50;;
43646;SDS011;56152;49.996;18.980;2023-07-28T06:00:28;3.50;;;2.72;;
43646;SDS011;56152;49.996;18.980;2023-07-28T06:05:35;5.43;;;3.17;;
43646;SDS011;56152;49.996;18.980;2023-07-28T06:10:37;5.35;;;2.50;;
43646;SDS011;56152;49.996;18.980;2023-07-28T06:15:43;7.22;;;3.00;;
43646;SDS011;56152;49.996;18.980;2023-07-28T06:20:48;3.90;;;2.60;;
43646;SDS011;56152;49.996;18.980;2023-07-28T06:25:50;4.32;;;3.10;;
43646;SDS011;56152;49.996;18.980;2023-07-28T06:30:57;5.43;;;3.28;;
43646;SDS011;56152;49.996;18.980;2023-07-28T06:36:02;3.90;;;2.63;;
43646;SDS011;56152;49.996;18.980;2023-07-28T06:41:04;6.15;;;3.47;;
43646;SDS011;56152;49.996;18.980;2023-07-28T06:46:06;7.18;;;2.90;;
43646;SDS011;56152;49.996;18.980;2023-07-28T06:51:17;4.22;;;2.95;;
43646;SDS011;56152;49.996;18.980;2023-07-28T06:56:25;4.18;;;3.00;;
43646;SDS011;56152;49.996;18.980;2023-07-28T07:01:27;5.90;;;3.03;;
43646;SDS011;56152;49.996;18.980;2023-07-28T07:06:31;4.35;;;2.85;;
43646;SDS011;56152;49.996;18.980;2023-07-28T07:11:36;2.88;;;2.45;;
43646;SDS011;56152;49.996;18.980;2023-07-28T07:16:41;5.55;;;3.10;;
43646;SDS011;56152;49.996;18.980;2023-07-28T07:21:45;3.47;;;2.72;;
43646;SDS011;56152;49.996;18.980;2023-07-28T07:26:58;4.88;;;2.85;;
43646;SDS011;56152;49.996;18.980;2023-07-28T07:32:14;3.67;;;2.50;;
43646;SDS011;56152;49.996;18.980;2023-07-28T07:37:40;4.10;;;2.38;;
43646;SDS011;56152;49.996;18.980;2023-07-28T07:42:47;5.30;;;2.60;;
43646;SDS011;56152;49.996;18.980;2023-07-28T07:47:54;2.90;;;2.60;;
43646;SDS011;56152;49.996;18.980;2023-07-28T07:53:00;6.40;;;2.60;;
43646;SDS011;56152;49.996;18.980;2023-07-28T07:58:02;3.22;;;2.85;;
43646;SDS011;56152;49.996;18.980;2023-07-28T08:03:05;3.40;;;2.40;;
43646;SDS011;56152;49.996;18.980;2023-07-28T08:08:11;4.90;;;2.70;;
43646;SDS011;56152;49.996;18.980;2023-07-28T08:13:15;4.25;;;2.53;;
43646;SDS011;56152;49.996;18.980;2023-07-28T08:18:18;3.15;;;2.40;;
43646;SDS011;56152;49.996;18.980;2023-07-28T08:23:22;3.55;;;2.67;;
43646;SDS011;56152;49.996;18.980;2023-07-28T08:28:24;3.08;;;2.30;;
43646;SDS011;56152;49.996;18.980;2023-07-28T08:33:32;3.90;;;2.85;;
43646;SDS011;56152;49.996;18.980;2023-07-28T08:38:39;3.53;;;2.45;;
43646;SDS011;56152;49.996;18.980;2023-07-28T08:43:45;2.92;;;2.28;;
43646;SDS011;56152;49.996;18.980;2023-07-28T08:48:51;3.55;;;2.10;;
43646;SDS011;56152;49.996;18.980;2023-07-28T08:53:54;4.35;;;2.30;;
43646;SDS011;56152;49.996;18.980;2023-07-28T08:59:02;4.50;;;2.40;;
43646;SDS011;56152;49.996;18.980;2023-07-28T09:04:06;6.28;;;2.63;;
43646;SDS011;56152;49.996;18.980;2023-07-28T09:09:14;6.32;;;2.75;;
43646;SDS011;56152;49.996;18.980;2023-07-28T09:14:18;4.57;;;2.80;;
43646;SDS011;56152;49.996;18.980;2023-07-28T09:19:24;4.15;;;3.08;;
43646;SDS011;56152;49.996;18.980;2023-07-28T09:24:32;7.70;;;2.80;;
43646;SDS011;56152;49.996;18.980;2023-07-28T09:35:05;4.95;;;2.80;;
43646;SDS011;56152;49.996;18.980;2023-07-28T09:40:13;3.50;;;2.50;;
43646;SDS011;56152;49.996;18.980;2023-07-28T09:45:19;8.05;;;2.70;;
43646;SDS011;56152;49.996;18.980;2023-07-28T09:50:32;3.35;;;2.40;;
43646;SDS011;56152;49.996;18.980;2023-07-28T09:55:39;6.43;;;2.53;;
43646;SDS011;56152;49.996;18.980;2023-07-28T10:00:48;4.35;;;2.75;;
43646;SDS011;56152;49.996;18.980;2023-07-28T10:05:51;2.63;;;2.40;;
43646;SDS011;56152;49.996;18.980;2023-07-28T10:10:55;3.33;;;2.58;;
43646;SDS011;56152;49.996;18.980;2023-07-28T10:15:59;4.40;;;2.47;;
43646;SDS011;56152;49.996;18.980;2023-07-28T10:21:06;8.15;;;2.20;;
43646;SDS011;56152;49.996;18.980;2023-07-28T10:26:33;4.57;;;2.60;;
43646;SDS011;56152;49.996;18.980;2023-07-28T10:31:53;4.60;;;2.65;;
43646;SDS011;56152;49.996;18.980;2023-07-28T10:36:56;3.55;;;2.50;;
43646;SDS011;56152;49.996;18.980;2023-07-28T10:42:10;3.95;;;2.55;;
43646;SDS011;56152;49.996;18.980;2023-07-28T10:47:12;6.00;;;2.63;;
43646;SDS011;56152;49.996;18.980;2023-07-28T10:52:17;6.05;;;2.30;;
43646;SDS011;56152;49.996;18.980;2023-07-28T10:57:24;4.55;;;2.42;;
43646;SDS011;56152;49.996;18.980;2023-07-28T11:02:27;4.45;;;2.70;;
43646;SDS011;56152;49.996;18.980;2023-07-28T11:07:34;4.75;;;2.67;;
43646;SDS011;56152;49.996;18.980;2023-07-28T11:12:41;3.65;;;2.60;;
43646;SDS011;56152;49.996;18.980;2023-07-28T11:17:53;5.70;;;2.53;;
43646;SDS011;56152;49.996;18.980;2023-07-28T11:22:57;3.20;;;2.05;;
43646;SDS011;56152;49.996;18.980;2023-07-28T11:28:05;2.05;;;1.85;;
43646;SDS011;56152;49.996;18.980;2023-07-28T11:33:13;2.40;;;2.20;;
43646;SDS011;56152;49.996;18.980;2023-07-28T11:38:33;2.42;;;2.00;;
43646;SDS011;56152;49.996;18.980;2023-07-28T11:43:38;2.63;;;2.10;;
43646;SDS011;56152;49.996;18.980;2023-07-28T11:48:48;2.03;;;1.80;;
43646;SDS011;56152;49.996;18.980;2023-07-28T11:53:51;2.05;;;1.77;;
43646;SDS011;56152;49.996;18.980;2023-07-28T11:59:02;5.50;;;2.47;;
43646;SDS011;56152;49.996;18.980;2023-07-28T12:04:18;2.30;;;1.83;;
43646;SDS011;56152;49.996;18.980;2023-07-28T12:09:23;3.58;;;1.60;;
43646;SDS011;56152;49.996;18.980;2023-07-28T12:14:35;3.35;;;1.70;;
43646;SDS011;56152;49.996;18.980;2023-07-28T12:19:40;2.22;;;1.60;;
43646;SDS011;56152;49.996;18.980;2023-07-28T12:24:43;2.03;;;1.52;;
43646;SDS011;56152;49.996;18.980;2023-07-28T12:29:47;1.50;;;1.40;;
43646;SDS011;56152;49.996;18.980;2023-07-28T12:34:51;2.95;;;1.88;;
43646;SDS011;56152;49.996;18.980;2023-07-28T12:40:11;4.77;;;1.47;;
43646;SDS011;56152;49.996;18.980;2023-07-28T12:45:58;2.33;;;1.45;;
43646;SDS011;56152;49.996;18.980;2023-07-28T12:51:03;5.05;;;1.60;;
43646;SDS011;56152;49.996;18.980;2023-07-28T12:56:10;4.03;;;1.85;;
43646;SDS011;56152;49.996;18.980;2023-07-28T13:01:17;2.58;;;1.70;;
43646;SDS011;56152;49.996;18.980;2023-07-28T13:06:19;2.45;;;1.67;;
43646;SDS011;56152;49.996;18.980;2023-07-28T13:11:25;2.10;;;1.75;;
43646;SDS011;56152;49.996;18.980;2023-07-28T13:16:30;3.50;;;1.70;;
43646;SDS011;56152;49.996;18.980;2023-07-28T13:21:32;1.60;;;1.50;;
43646;SDS011;56152;49.996;18.980;2023-07-28T13:26:38;3.58;;;1.92;;
43646;SDS011;56152;49.996;18.980;2023-07-28T13:31:51;2.20;;;1.63;;
43646;SDS011;56152;49.996;18.980;2023-07-28T13:37:09;2.83;;;1.73;;
43646;SDS011;56152;49.996;18.980;2023-07-28T13:42:12;1.55;;;1.45;;
43646;SDS011;56152;49.996;18.980;2023-07-28T13:47:19;4.05;;;1.65;;
43646;SDS011;56152;49.996;18.980;2023-07-28T13:52:24;1.75;;;1.45;;
43646;SDS011;56152;49.996;18.980;2023-07-28T13:57:26;1.60;;;1.50;;
43646;SDS011;56152;49.996;18.980;2023-07-28T14:02:34;1.95;;;1.63;;
43646;SDS011;56152;49.996;18.980;2023-07-28T14:07:39;6.07;;;1.50;;
43646;SDS011;56152;49.996;18.980;2023-07-28T14:12:46;2.00;;;1.50;;
43646;SDS011;56152;49.996;18.980;2023-07-28T14:17:50;6.03;;;2.03;;
43646;SDS011;56152;49.996;18.980;2023-07-28T14:22:53;2.20;;;1.70;;
43646;SDS011;56152;49.996;18.980;2023-07-28T14:28:03;1.85;;;1.40;;
43646;SDS011;56152;49.996;18.980;2023-07-28T14:33:09;1.60;;;1.50;;
43646;SDS011;56152;49.996;18.980;2023-07-28T14:38:11;1.60;;;1.50;;
43646;SDS011;56152;49.996;18.980;2023-07-28T14:43:26;6.47;;;1.80;;
43646;SDS011;56152;49.996;18.980;2023-07-28T14:48:30;2.15;;;1.75;;
43646;SDS011;56152;49.996;18.980;2023-07-28T14:53:45;1.98;;;1.55;;
43646;SDS011;56152;49.996;18.980;2023-07-28T14:58:55;3.55;;;2.00;;
43646;SDS011;56152;49.996;18.980;2023-07-28T15:04:01;2.50;;;1.98;;
43646;SDS011;56152;49.996;18.980;2023-07-28T15:09:06;3.63;;;1.80;;
43646;SDS011;56152;49.996;18.980;2023-07-28T15:14:12;2.58;;;1.90;;
43646;SDS011;56152;49.996;18.980;2023-07-28T15:19:16;3.42;;;1.52;;
43646;SDS011;56152;49.996;18.980;2023-07-28T15:24:18;2.70;;;1.83;;
43646;SDS011;56152;49.996;18.980;2023-07-28T15:29:29;2.60;;;2.40;;
43646;SDS011;56152;49.996;18.980;2023-07-28T15:34:36;3.42;;;2.85;;
43646;SDS011;56152;49.996;18.980;2023-07-28T15:39:38;1.63;;;1.48;;
43646;SDS011;56152;49.996;18.980;2023-07-28T15:44:42;7.15;;;3.08;;
43646;SDS011;56152;49.996;18.980;2023-07-28T15:49:47;10.07;;;4.60;;
43646;SDS011;56152;49.996;18.980;2023-07-28T15:54:51;6.28;;;3.80;;
43646;SDS011;56152;49.996;18.980;2023-07-28T15:59:53;6.70;;;2.92;;
43646;SDS011;56152;49.996;18.980;2023-07-28T16:05:02;4.25;;;2.22;;
43646;SDS011;56152;49.996;18.980;2023-07-28T16:10:08;6.32;;;3.38;;
43646;SDS011;56152;49.996;18.980;2023-07-28T16:15:10;5.22;;;3.50;;
43646;SDS011;56152;49.996;18.980;2023-07-28T16:20:20;3.75;;;2.38;;
43646;SDS011;56152;49.996;18.980;2023-07-28T16:25:22;2.90;;;2.15;;
43646;SDS011;56152;49.996;18.980;2023-07-28T16:30:24;5.55;;;2.72;;
43646;SDS011;56152;49.996;18.980;2023-07-28T16:35:28;4.53;;;2.60;;
43646;SDS011;56152;49.996;18.980;2023-07-28T16:40:30;3.60;;;2.45;;
43646;SDS011;56152;49.996;18.980;2023-07-28T16:45:32;4.68;;;2.30;;
43646;SDS011;56152;49.996;18.980;2023-07-28T16:50:38;5.10;;;2.10;;
43646;SDS011;56152;49.996;18.980;2023-07-28T16:55:40;5.28;;;2.13;;
43646;SDS011;56152;49.996;18.980;2023-07-28T17:00:41;2.10;;;1.90;;
43646;SDS011;56152;49.996;18.980;2023-07-28T17:05:45;3.03;;;2.22;;
43646;SDS011;56152;49.996;18.980;2023-07-28T17:10:49;4.85;;;2.10;;
43646;SDS011;56152;49.996;18.980;2023-07-28T17:15:52;4.57;;;2.47;;
43646;SDS011;56152;49.996;18.980;2023-07-28T17:20:55;4.78;;;2.30;;
43646;SDS011;56152;49.996;18.980;2023-07-28T17:25:57;4.35;;;2.15;;
43646;SDS011;56152;49.996;18.980;2023-07-28T17:30:59;4.30;;;2.20;;
43646;SDS011;56152;49.996;18.980;2023-07-28T17:36:03;3.60;;;2.42;;
43646;SDS011;56152;49.996;18.980;2023-07-28T17:41:06;4.32;;;2.42;;
43646;SDS011;56152;49.996;18.980;2023-07-28T17:46:09;8.68;;;2.83;;
43646;SDS011;56152;49.996;18.980;2023-07-28T17:51:13;15.50;;;3.33;;
43646;SDS011;56152;49.996;18.980;2023-07-28T17:56:15;13.32;;;4.13;;
43646;SDS011;56152;49.996;18.980;2023-07-28T18:01:17;9.90;;;2.92;;
43646;SDS011;56152;49.996;18.980;2023-07-28T18:06:21;4.18;;;2.67;;
43646;SDS011;56152;49.996;18.980;2023-07-28T18:11:24;5.18;;;2.67;;
43646;SDS011;56152;49.996;18.980;2023-07-28T18:16:30;5.72;;;2.50;;
43646;SDS011;56152;49.996;18.980;2023-07-28T18:26:57;5.85;;;3.20;;
43646;SDS011;56152;49.996;18.980;2023-07-28T18:31:59;4.63;;;3.10;;
43646;SDS011;56152;49.996;18.980;2023-07-28T18:37:07;4.30;;;2.92;;
43646;SDS011;56152;49.996;18.980;2023-07-28T18:42:11;6.32;;;3.00;;
43646;SDS011;56152;49.996;18.980;2023-07-28T18:47:13;6.35;;;3.50;;
43646;SDS011;56152;49.996;18.980;2023-07-28T18:52:15;6.18;;;3.65;;
43646;SDS011;56152;49.996;18.980;2023-07-28T18:57:18;7.68;;;3.17;;
43646;SDS011;56152;49.996;18.980;2023-07-28T19:02:23;5.20;;;3.00;;
43646;SDS011;56152;49.996;18.980;2023-07-28T19:07:32;4.45;;;2.90;;
43646;SDS011;56152;49.996;18.980;2023-07-28T19:12:36;5.57;;;3.40;;
43646;SDS011;56152;49.996;18.980;2023-07-28T19:17:50;4.20;;;2.58;;
43646;SDS011;56152;49.996;18.980;2023-07-28T19:22:52;4.93;;;3.28;;
43646;SDS011;56152;49.996;18.980;2023-07-28T19:27:58;6.90;;;3.38;;
43646;SDS011;56152;49.996;18.980;2023-07-28T19:33:03;3.22;;;2.70;;
43646;SDS011;56152;49.996;18.980;2023-07-28T19:38:19;4.78;;;2.97;;
43646;SDS011;56152;49.996;18.980;2023-07-28T19:43:24;3.78;;;2.70;;
43646;SDS011;56152;49.996;18.980;2023-07-28T19:48:27;5.55;;;2.92;;
43646;SDS011;56152;49.996;18.980;2023-07-28T19:53:31;5.30;;;3.17;;
43646;SDS011;56152;49.996;18.980;2023-07-28T19:58:34;8.98;;;3.08;;
43646;SDS011;56152;49.996;18.980;2023-07-28T20:03:36;9.23;;;5.18;;
43646;SDS011;56152;49.996;18.980;2023-07-28T20:08:42;8.52;;;5.70;;
43646;SDS011;56152;49.996;18.980;2023-07-28T20:13:45;12.30;;;6.28;;
43646;SDS011;56152;49.996;18.980;2023-07-28T20:18:47;6.85;;;5.10;;
43646;SDS011;56152;49.996;18.980;2023-07-28T20:23:52;8.13;;;5.43;;
43646;SDS011;56152;49.996;18.980;2023-07-28T20:28:55;7.25;;;5.18;;
43646;SDS011;56152;49.996;18.980;2023-07-28T20:33:57;16.52;;;5.50;;
43646;SDS011;56152;49.996;18.980;2023-07-28T20:38:59;7.05;;;4.82;;
43646;SDS011;56152;49.996;18.980;2023-07-28T20:44:03;8.23;;;5.25;;
43646;SDS011;56152;49.996;18.980;2023-07-28T20:49:05;10.25;;;5.15;;
43646;SDS011;56152;49.996;18.980;2023-07-28T20:54:07;10.73;;;6.10;;
43646;SDS011;56152;49.996;18.980;2023-07-28T20:59:11;11.63;;;6.57;;
43646;SDS011;56152;49.996;18.980;2023-07-28T21:04:13;9.20;;;6.80;;
43646;SDS011;56152;49.996;18.980;2023-07-28T21:09:15;10.70;;;6.47;;
43646;SDS011;56152;49.996;18.980;2023-07-28T21:14:18;10.68;;;6.88;;
43646;SDS011;56152;49.996;18.980;2023-07-28T21:19:20;9.82;;;6.03;;
43646;SDS011;56152;49.996;18.980;2023-07-28T21:24:22;9.05;;;5.75;;
43646;SDS011;56152;49.996;18.980;2023-07-28T21:29:28;11.40;;;6.53;;
43646;SDS011;56152;49.996;18.980;2023-07-28T21:34:30;7.47;;;5.95;;
43646;SDS011;56152;49.996;18.980;2023-07-28T21:39:36;10.10;;;6.85;;
43646;SDS011;56152;49.996;18.980;2023-07-28T21:44:46;7.45;;;5.53;;
43646;SDS011;56152;49.996;18.980;2023-07-28T21:49:47;14.05;;;7.20;;
43646;SDS011;56152;49.996;18.980;2023-07-28T21:54:49;11.73;;;6.53;;
43646;SDS011;56152;49.996;18.980;2023-07-28T21:59:54;10.55;;;7.20;;
43646;SDS011;56152;49.996;18.980;2023-07-28T22:04:56;10.48;;;5.82;;
43646;SDS011;56152;49.996;18.980;2023-07-28T22:09:59;8.40;;;6.22;;
43646;SDS011;56152;49.996;18.980;2023-07-28T22:15:04;15.73;;;7.82;;
43646;SDS011;56152;49.996;18.980;2023-07-28T22:20:07;9.55;;;6.00;;
43646;SDS011;56152;49.996;18.980;2023-07-28T22:25:09;12.68;;;7.80;;
43646;SDS011;56152;49.996;18.980;2023-07-28T22:30:13;11.35;;;7.70;;
43646;SDS011;56152;49.996;18.980;2023-07-28T22:35:18;11.30;;;7.20;;
43646;SDS011;56152;49.996;18.980;2023-07-28T22:40:20;12.02;;;7.78;;
43646;SDS011;56152;49.996;18.980;2023-07-28T22:45:24;10.68;;;6.95;;
43646;SDS011;56152;49.996;18.980;2023-07-28T22:50:27;9.25;;;6.78;;
43646;SDS011;56152;49.996;18.980;2023-07-28T22:55:28;12.02;;;6.85;;
43646;SDS011;56152;49.996;18.980;2023-07-28T23:00:32;9.70;;;7.03;;
43646;SDS011;56152;49.996;18.980;2023-07-28T23:05:33;13.15;;;7.68;;
43646;SDS011;56152;49.996;18.980;2023-07-28T23:10:37;11.05;;;7.80;;
43646;SDS011;56152;49.996;18.980;2023-07-28T23:15:40;12.57;;;6.68;;
43646;SDS011;56152;49.996;18.980;2023-07-28T23:20:42;9.95;;;6.32;;
43646;SDS011;56152;49.996;18.980;2023-07-28T23:25:44;12.18;;;6.35;;
43646;SDS011;56152;49.996;18.980;2023-07-28T23:30:47;10.65;;;6.80;;
43646;SDS011;56152;49.996;18.980;2023-07-28T23:35:49;11.18;;;7.18;;
43646;SDS011;56152;49.996;18.980;2023-07-28T23:40:51;8.65;;;5.93;;
43646;SDS011;56152;49.996;18.980;2023-07-28T23:45:55;8.05;;;5.88;;
43646;SDS011;56152;49.996;18.980;2023-07-28T23:50:59;9.00;;;4.72;;
43646;SDS011;56152;49.996;18.980;2023-07-28T23:56:01;7.57;;;5.70;;
